Time;durP1;ratioP1;P1;durP2;ratioP2;P2;SDS_P1;SDS_P2;PMS_P1;PMS_P2;Temp;Humidity;BMP_temperature;BMP_pressure;BME280_temperature;BME280_humidity;BME280_pressure;Samples;Min_cycle;Max_cycle;Signal;HPM_P1;HPM_P2
2021/10/12 00:01:15;;;;;;;;;10.00;8.00;;;;;13.18;61.78;102447.34;5017275;28;45385;-80
2021/10/12 00:03:41;;;;;;;;;10.50;9.00;;;;;13.20;61.67;102451.88;5017804;28;45453;-79
2021/10/12 00:06:07;;;;;;;;;11.00;9.50;;;;;13.23;61.96;102459.84;5017868;28;45377;-79
2021/10/12 00:08:33;;;;;;;;;7.00;7.00;;;;;13.21;62.10;102453.66;5017752;28;45859;-79
2021/10/12 00:10:59;;;;;;;;;7.75;7.75;;;;;13.20;61.92;102464.88;5017263;28;46250;-78
2021/10/12 00:13:25;;;;;;;;;9.00;8.00;;;;;13.18;61.91;102460.34;5018199;28;45240;-79
2021/10/12 00:15:51;;;;;;;;;7.50;6.00;;;;;13.18;61.91;102468.16;5017176;28;45281;-79
2021/10/12 00:18:16;;;;;;;;;10.25;8.75;;;;;13.14;61.90;102452.41;5017953;28;45513;-80
2021/10/12 00:20:42;;;;;;;;;8.00;7.75;;;;;13.17;61.75;102456.88;5016888;28;45446;-79
2021/10/12 00:23:08;;;;;;;;;7.00;5.75;;;;;13.10;61.97;102450.41;5017583;28;45331;-80
2021/10/12 00:25:34;;;;;;;;;11.25;10.00;;;;;13.14;61.76;102472.28;5017376;28;45398;-77
2021/10/12 00:27:59;;;;;;;;;8.25;8.25;;;;;13.02;61.99;102456.84;5020942;28;45271;-79
2021/10/12 00:30:25;;;;;;;;;7.75;7.75;;;;;13.08;62.27;102459.81;5020283;28;45991;-79
2021/10/12 00:32:51;;;;;;;;;10.50;9.25;;;;;13.04;62.13;102455.25;5017348;28;45387;-80
2021/10/12 00:35:16;;;;;;;;;7.25;7.25;;;;;13.04;62.49;102456.94;5017727;28;45252;-79
2021/10/12 00:37:42;;;;;;;;;10.50;8.75;;;;;13.06;62.40;102458.84;4998789;28;45316;-78
2021/10/12 00:40:08;;;;;;;;;10.50;9.25;;;;;13.05;62.46;102462.25;5009742;28;45978;-77
2021/10/12 00:42:35;;;;;;;;;11.25;9.75;;;;;13.03;62.00;102455.13;5016776;28;45425;-80
2021/10/12 00:45:04;;;;;;;;;12.00;10.00;;;;;13.07;62.33;102457.13;5016162;28;45600;-78
2021/10/12 00:47:30;;;;;;;;;11.25;11.00;;;;;13.03;62.71;102448.25;5016201;28;45374;-77
2021/10/12 00:49:55;;;;;;;;;8.00;7.25;;;;;12.93;62.55;102432.88;5016020;28;45939;-76
2021/10/12 00:52:21;;;;;;;;;9.50;9.50;;;;;12.91;62.66;102442.28;5016235;28;45425;-75
2021/10/12 00:54:47;;;;;;;;;7.75;7.75;;;;;12.76;62.75;102416.25;5014639;28;45348;-77
2021/10/12 00:57:14;;;;;;;;;6.50;6.50;;;;;12.84;63.04;102433.22;5016101;28;45320;-77
2021/10/12 00:59:40;;;;;;;;;8.00;7.00;;;;;12.79;62.97;102434.66;5015201;28;46545;-77
2021/10/12 01:02:08;;;;;;;;;8.50;6.00;;;;;12.72;63.12;102419.44;5015190;28;45780;-77
2021/10/12 01:04:34;;;;;;;;;9.25;8.00;;;;;12.69;62.96;102415.84;5015198;28;45463;-77
2021/10/12 01:06:59;;;;;;;;;10.00;7.00;;;;;12.70;63.10;102422.84;5016020;28;45523;-77
2021/10/12 01:09:25;;;;;;;;;6.25;5.75;;;;;12.71;63.18;102418.56;5015782;28;45422;-77
2021/10/12 01:11:51;;;;;;;;;11.00;9.25;;;;;12.68;63.13;102410.56;5015002;28;45398;-78
2021/10/12 01:14:17;;;;;;;;;7.25;7.25;;;;;12.66;63.17;102420.88;5016099;28;45453;-76
2021/10/12 01:16:42;;;;;;;;;10.00;9.50;;;;;12.66;63.34;102420.88;5015873;28;45588;-78
2021/10/12 01:19:09;;;;;;;;;7.00;7.00;;;;;12.67;63.15;102416.56;5015088;28;45708;-78
2021/10/12 01:21:47;;;;;;;;;10.00;7.50;;;;;12.64;63.27;102411.16;5015464;28;45729;-77
2021/10/12 01:24:13;;;;;;;;;6.00;5.25;;;;;12.69;63.16;102407.16;5015417;28;45759;-77
2021/10/12 01:26:40;;;;;;;;;8.75;6.50;;;;;12.61;63.38;102392.81;5013393;28;45299;-77
2021/10/12 01:29:08;;;;;;;;;9.00;7.00;;;;;12.66;63.11;102404.38;5015229;28;46241;-76
2021/10/12 01:31:33;;;;;;;;;8.50;6.00;;;;;12.63;63.18;102384.31;5015036;28;45701;-79
2021/10/12 01:33:59;;;;;;;;;7.75;7.25;;;;;12.65;63.16;102379.19;5030569;28;45261;-80
2021/10/12 01:36:26;;;;;;;;;7.50;6.25;;;;;12.62;63.15;102374.72;5030800;28;45241;-78
2021/10/12 01:38:52;;;;;;;;;8.25;6.25;;;;;12.63;63.20;102373.03;5014839;28;45389;-78
2021/10/12 01:41:18;;;;;;;;;8.00;7.00;;;;;12.63;63.19;102384.31;5015076;28;45318;-80
2021/10/12 01:43:44;;;;;;;;;10.25;8.50;;;;;12.58;63.17;102375.31;4966369;28;1390412;-78
2021/10/12 01:46:10;;;;;;;;;9.75;7.75;;;;;12.57;63.39;102376.16;5016690;28;45260;-77
2021/10/12 01:48:37;;;;;;;;;10.00;7.25;;;;;12.53;63.43;102364.63;5015883;28;45451;-78
2021/10/12 01:51:04;;;;;;;;;8.25;6.00;;;;;12.59;63.28;102381.41;5016724;28;45177;-77
2021/10/12 01:53:30;;;;;;;;;8.00;7.00;;;;;12.59;63.20;102391.81;5015984;28;45346;-77
2021/10/12 01:55:57;;;;;;;;;9.00;8.00;;;;;12.56;63.45;102392.53;5016232;28;45178;-78
2021/10/12 01:58:22;;;;;;;;;15.50;6.25;;;;;12.53;63.37;102389.75;5018651;28;45568;-77
2021/10/12 02:00:48;;;;;;;;;9.75;6.75;;;;;12.51;63.34;102383.53;5020008;28;45385;-79
2021/10/12 02:03:14;;;;;;;;;6.50;6.50;;;;;12.46;63.46;102383.25;5016467;28;45448;-80
2021/10/12 02:05:39;;;;;;;;;8.75;8.00;;;;;12.48;63.42;102386.84;5016187;28;45387;-79
2021/10/12 02:08:05;;;;;;;;;8.75;7.75;;;;;12.42;63.33;102370.88;5031259;28;46249;-77
2021/10/12 02:10:31;;;;;;;;;7.25;6.75;;;;;12.43;63.49;102382.16;5015741;28;45405;-80
2021/10/12 02:12:57;;;;;;;;;7.50;5.50;;;;;12.35;63.51;102366.09;5016132;28;45489;-80
2021/10/12 02:15:22;;;;;;;;;9.00;7.75;;;;;12.30;63.69;102367.53;5015338;28;45212;-78
2021/10/12 02:17:48;;;;;;;;;7.25;7.25;;;;;12.27;63.83;102362.13;5011109;28;46452;-80
2021/10/12 02:20:14;;;;;;;;;6.50;5.50;;;;;12.18;64.03;102346.88;4996234;28;45834;-78
2021/10/12 02:22:41;;;;;;;;;7.25;6.50;;;;;12.23;63.95;102343.75;4996019;28;45371;-77
2021/10/12 02:25:09;;;;;;;;;8.75;6.00;;;;;12.23;64.00;102340.28;5011694;28;45301;-78
2021/10/12 02:27:35;;;;;;;;;9.75;7.00;;;;;12.15;63.91;102325.91;4995879;28;45469;-80
2021/10/12 02:30:00;;;;;;;;;9.25;6.50;;;;;12.19;64.06;102357.38;5003983;28;45410;-77
2021/10/12 02:32:26;;;;;;;;;6.75;6.75;;;;;12.18;64.03;102359.84;5016265;28;45413;-78
2021/10/12 02:34:52;;;;;;;;;6.50;5.75;;;;;12.14;64.37;102369.16;5016000;28;45363;-80
2021/10/12 02:37:19;;;;;;;;;8.25;6.25;;;;;12.12;64.21;102370.75;5015688;28;45880;-77
2021/10/12 02:39:45;;;;;;;;;7.75;6.50;;;;;12.09;63.91;102362.78;5015419;28;45937;-77
2021/10/12 02:42:10;;;;;;;;;8.25;7.75;;;;;12.06;64.29;102355.66;5032454;28;45227;-76
2021/10/12 02:44:36;;;;;;;;;8.25;7.00;;;;;12.09;64.44;102352.41;5018296;28;45491;-79
2021/10/12 02:47:02;;;;;;;;;4.75;4.75;;;;;12.01;64.33;102338.00;5016173;28;45902;-78
2021/10/12 02:49:28;;;;;;;;;7.00;5.25;;;;;12.00;64.29;102336.22;5015712;28;45389;-77
2021/10/12 02:51:53;;;;;;;;;7.00;5.00;;;;;12.03;64.16;102346.78;5015463;28;45347;-77
2021/10/12 02:54:19;;;;;;;;;6.25;4.75;;;;;11.96;64.24;102344.59;5015816;28;45577;-77
2021/10/12 02:56:44;;;;;;;;;7.50;5.00;;;;;11.99;64.14;102349.97;5015275;28;45427;-77
2021/10/12 02:59:11;;;;;;;;;8.75;8.00;;;;;11.98;64.26;102340.44;5015431;28;45383;-78
2021/10/12 03:01:36;;;;;;;;;8.25;6.25;;;;;11.93;64.20;102335.78;5015349;28;45417;-79
2021/10/12 03:04:02;;;;;;;;;7.00;6.00;;;;;11.97;64.45;102346.38;5016054;28;45459;-79
2021/10/12 03:06:28;;;;;;;;;5.00;5.00;;;;;11.91;64.23;102342.59;5015464;28;45933;-77
2021/10/12 03:08:53;;;;;;;;;7.75;6.00;;;;;11.89;64.52;102348.47;5016014;28;45357;-78
2021/10/12 03:11:19;;;;;;;;;7.50;6.50;;;;;11.86;64.41;102345.69;5015983;28;45249;-77
2021/10/12 03:13:45;;;;;;;;;7.50;7.00;;;;;11.84;64.52;102339.47;5015173;28;45236;-76
2021/10/12 03:16:10;;;;;;;;;7.50;6.25;;;;;11.80;64.54;102333.22;5015193;28;45237;-77
2021/10/12 03:18:37;;;;;;;;;5.50;4.00;;;;;11.77;64.66;102331.31;5014703;28;45465;-78
2021/10/12 03:21:03;;;;;;;;;6.00;5.00;;;;;11.76;64.61;102324.34;5015454;28;45412;-77
2021/10/12 03:23:29;;;;;;;;;8.00;5.00;;;;;11.75;65.11;102313.88;5015319;28;45615;-77
2021/10/12 03:25:55;;;;;;;;;8.00;6.00;;;;;11.79;65.09;102300.28;5016636;28;45922;-76
2021/10/12 03:28:21;;;;;;;;;8.50;6.75;;;;;11.91;64.93;102311.44;5014436;28;45448;-76
2021/10/12 03:30:47;;;;;;;;;7.25;7.00;;;;;11.97;64.46;102312.63;4998841;28;45335;-77
2021/10/12 03:33:14;;;;;;;;;7.00;7.00;;;;;11.94;64.42;102308.13;4999096;28;45493;-76
2021/10/12 03:35:46;;;;;;;;;8.25;7.00;;;;;11.95;64.48;102319.44;5008908;28;46360;-76
2021/10/12 03:38:12;;;;;;;;;9.50;6.75;;;;;11.85;64.62;102304.94;5018240;28;45565;-79
2021/10/12 03:40:38;;;;;;;;;6.25;6.25;;;;;11.90;64.51;102314.81;5018400;28;45393;-77
2021/10/12 03:43:04;;;;;;;;;6.00;6.00;;;;;11.90;64.47;102313.94;5018802;28;45580;-77
2021/10/12 03:45:29;;;;;;;;;6.00;6.00;;;;;11.86;64.46;102314.53;5017416;28;45466;-77
2021/10/12 03:47:55;;;;;;;;;9.25;7.00;;;;;11.84;64.77;102319.63;5018171;28;45248;-77
2021/10/12 03:50:21;;;;;;;;;7.00;6.00;;;;;11.77;64.70;102307.97;5018234;28;45338;-77
2021/10/12 03:52:47;;;;;;;;;7.00;7.00;;;;;11.69;64.64;102298.81;5018261;28;45186;-77
2021/10/12 03:55:14;;;;;;;;;6.75;6.75;;;;;11.73;64.76;102313.75;5016923;28;46308;-76
2021/10/12 03:57:39;;;;;;;;;8.00;7.75;;;;;11.68;64.89;102309.97;5017808;28;45284;-77
2021/10/12 04:00:07;;;;;;;;;8.00;6.50;;;;;11.64;65.04;102310.56;5018307;28;45506;-77
2021/10/12 04:02:33;;;;;;;;;8.00;6.75;;;;;11.67;65.14;102315.03;5018085;28;45311;-77
2021/10/12 04:04:59;;;;;;;;;9.50;8.50;;;;;11.58;65.01;102295.50;5017663;28;45871;-77
2021/10/12 04:07:24;;;;;;;;;10.50;7.25;;;;;11.58;65.25;102310.19;5018338;28;45505;-77
2021/10/12 04:09:50;;;;;;;;;7.00;6.00;;;;;11.53;65.41;102308.97;5018105;28;45383;-77
2021/10/12 04:12:16;;;;;;;;;9.00;8.00;;;;;11.49;65.15;102297.50;5023122;28;45513;-81
2021/10/12 04:14:42;;;;;;;;;9.00;7.00;;;;;11.49;65.43;102294.03;5020443;28;45991;-81
2021/10/12 04:17:07;;;;;;;;;10.00;9.00;;;;;11.46;65.72;102289.50;5019697;28;45620;-79
2021/10/12 04:19:33;;;;;;;;;10.75;10.75;;;;;11.45;65.67;102299.00;5020429;28;45453;-80
2021/10/12 04:21:59;;;;;;;;;8.00;8.00;;;;;11.42;65.71;102296.19;5021251;28;45446;-80
2021/10/12 04:24:25;;;;;;;;;8.00;8.00;;;;;11.42;65.75;102313.47;5021796;28;46063;-82
2021/10/12 04:26:51;;;;;;;;;10.50;7.75;;;;;11.38;65.88;102316.66;5017430;28;45782;-84
2021/10/12 04:29:16;;;;;;;;;9.25;7.50;;;;;11.38;66.00;102311.47;5020610;28;45434;-80
2021/10/12 04:31:42;;;;;;;;;11.50;9.50;;;;;11.35;65.93;102312.16;5020842;28;45367;-82
2021/10/12 04:34:08;;;;;;;;;7.50;7.50;;;;;11.30;65.86;102306.69;5032691;28;46528;-83
2021/10/12 04:36:34;;;;;;;;;13.00;10.50;;;;;11.30;65.73;102306.69;5018580;28;45189;-83
2021/10/12 04:38:59;;;;;;;;;13.50;9.50;;;;;11.31;66.27;102310.16;5018087;28;45287;-81
2021/10/12 04:41:25;;;;;;;;;10.25;9.50;;;;;11.31;66.34;102304.97;5017791;28;45555;-79
2021/10/12 04:43:51;;;;;;;;;8.00;8.00;;;;;11.32;66.21;102299.00;5017503;28;45893;-81
2021/10/12 04:46:18;;;;;;;;;14.25;11.25;;;;;11.34;65.98;102293.94;5016958;28;45406;-82
2021/10/12 04:48:44;;;;;;;;;11.00;10.00;;;;;11.23;66.14;102278.53;5017375;28;45397;-82
2021/10/12 04:51:09;;;;;;;;;14.25;10.75;;;;;11.33;66.28;102308.56;5018034;28;45403;-83
2021/10/12 04:53:35;;;;;;;;;10.25;10.25;;;;;11.27;65.93;102303.88;5018537;28;46315;-80
2021/10/12 04:56:01;;;;;;;;;15.75;14.75;;;;;11.29;66.17;102312.66;5022173;28;45409;-79
2021/10/12 04:58:26;;;;;;;;;17.75;14.75;;;;;11.30;66.50;102303.16;5018508;28;45313;-80
2021/10/12 05:00:52;;;;;;;;;11.25;10.25;;;;;11.32;66.16;102304.19;5018366;28;45627;-80
2021/10/12 05:03:17;;;;;;;;;13.75;11.00;;;;;11.35;66.32;102303.47;5018527;28;45594;-79
2021/10/12 05:05:43;;;;;;;;;15.00;11.25;;;;;11.38;66.24;102307.19;5016850;28;45478;-84
2021/10/12 05:08:09;;;;;;;;;12.50;11.25;;;;;11.40;66.14;102290.00;5017405;28;45260;-84
2021/10/12 05:10:35;;;;;;;;;11.00;9.50;;;;;11.42;65.90;102291.00;5015796;28;45485;-81
2021/10/12 05:13:00;;;;;;;;;15.00;10.00;;;;;11.48;66.06;102308.66;5016943;28;45300;-84
2021/10/12 05:15:28;;;;;;;;;10.00;10.00;;;;;11.49;65.91;102288.84;5017394;28;45262;-81
2021/10/12 05:17:54;;;;;;;;;10.75;10.75;;;;;11.56;65.71;102291.91;5017925;28;45429;-80
2021/10/12 05:20:20;;;;;;;;;14.50;11.25;;;;;11.52;65.71;102279.56;5016893;28;45546;-80
2021/10/12 05:22:47;;;;;;;;;18.25;10.75;;;;;11.46;65.58;102277.47;5017234;28;45460;-82
2021/10/12 05:25:13;;;;;;;;;11.25;11.00;;;;;11.42;66.00;102291.00;5018613;28;45239;-81
2021/10/12 05:27:40;;;;;;;;;15.00;13.50;;;;;11.46;66.07;102290.44;5025085;28;45230;-78
2021/10/12 05:30:08;;;;;;;;;12.25;12.25;;;;;11.45;65.88;102292.91;5025836;28;46543;-78
2021/10/12 05:32:37;;;;;;;;;16.50;15.25;;;;;11.38;66.01;102281.25;5015036;28;46065;-82
2021/10/12 05:35:05;;;;;;;;;16.50;13.00;;;;;11.30;65.99;102280.75;5017559;28;45737;-78
2021/10/12 05:37:32;;;;;;;;;12.75;9.75;;;;;11.34;66.11;102297.41;5018828;28;45359;-77
2021/10/12 05:39:58;;;;;;;;;16.25;15.00;;;;;11.35;66.35;102288.81;5018199;28;45417;-80
2021/10/12 05:42:24;;;;;;;;;14.50;11.00;;;;;11.38;66.32;102282.94;5015726;28;45936;-78
2021/10/12 05:44:49;;;;;;;;;15.50;15.00;;;;;11.36;66.31;102284.53;5014763;28;45482;-80
2021/10/12 05:47:15;;;;;;;;;13.50;9.25;;;;;11.34;66.28;102294.81;5030456;28;45466;-78
2021/10/12 05:49:41;;;;;;;;;13.50;10.25;;;;;11.30;66.20;102290.22;5014661;28;45634;-79
2021/10/12 05:52:11;;;;;;;;;16.25;14.00;;;;;11.34;66.16;102296.53;5010252;28;45468;-80
2021/10/12 05:54:43;;;;;;;;;14.75;13.75;;;;;11.33;66.12;102295.59;5015128;28;45544;-79
2021/10/12 05:57:18;;;;;;;;;18.50;15.00;;;;;11.33;66.24;102297.31;5015471;28;45216;-82
2021/10/12 05:59:43;;;;;;;;;15.25;12.50;;;;;11.30;66.41;102300.59;5014483;28;45361;-81
2021/10/12 06:02:09;;;;;;;;;14.50;12.50;;;;;11.21;66.35;102282.75;5014867;28;45386;-82
2021/10/12 06:04:34;;;;;;;;;14.75;14.75;;;;;11.24;66.38;102288.09;5018826;28;45221;-85
2021/10/12 06:07:01;;;;;;;;;12.25;10.25;;;;;11.22;66.52;102294.91;5016864;28;45478;-84
2021/10/12 06:09:27;;;;;;;;;14.75;13.00;;;;;11.15;66.43;102283.25;5016586;28;45625;-82
2021/10/12 06:11:53;;;;;;;;;16.75;14.25;;;;;11.19;66.79;102288.59;5016584;28;45482;-89
2021/10/12 06:14:18;;;;;;;;;14.00;13.00;;;;;11.14;66.59;102285.72;5019461;28;45349;-83
2021/10/12 06:16:44;;;;;;;;;13.25;12.00;;;;;11.19;66.97;102294.69;5017753;28;45479;-76
2021/10/12 06:19:09;;;;;;;;;14.00;10.50;;;;;11.23;66.96;102283.72;5016864;28;45331;-77
2021/10/12 06:21:35;;;;;;;;;12.00;10.25;;;;;11.19;66.72;102281.75;5015858;28;45990;-78
2021/10/12 06:24:01;;;;;;;;;12.00;11.75;;;;;11.15;66.55;102271.94;5015282;28;45400;-79
2021/10/12 06:26:26;;;;;;;;;11.25;11.25;;;;;11.25;66.49;102296.81;5016272;28;45325;-77
2021/10/12 06:28:52;;;;;;;;;12.50;10.00;;;;;11.25;66.49;102292.50;5015147;28;45564;-77
2021/10/12 06:31:17;;;;;;;;;15.00;13.25;;;;;11.21;66.69;102297.38;5015694;28;46094;-77
2021/10/12 06:33:43;;;;;;;;;14.00;13.25;;;;;11.17;66.73;102283.31;5015315;28;45315;-76
2021/10/12 06:36:09;;;;;;;;;11.25;11.25;;;;;11.16;66.90;102284.13;5014144;28;45358;-79
2021/10/12 06:38:34;;;;;;;;;13.50;11.75;;;;;11.17;66.60;102290.22;5011945;28;45502;-81
2021/10/12 06:41:00;;;;;;;;;17.25;13.50;;;;;11.19;66.85;102296.38;5013641;28;46011;-80
2021/10/12 06:43:26;;;;;;;;;13.75;11.75;;;;;11.19;66.76;102296.38;5009679;28;45433;-79
2021/10/12 06:45:51;;;;;;;;;13.75;12.00;;;;;11.04;66.86;102263.47;5014373;28;45537;-80
2021/10/12 06:48:17;;;;;;;;;13.75;11.25;;;;;11.21;66.57;102284.41;5015553;28;45208;-81
2021/10/12 06:50:43;;;;;;;;;13.00;12.50;;;;;11.15;66.70;102284.91;5014188;28;45432;-78
2021/10/12 06:53:09;;;;;;;;;15.25;13.00;;;;;11.24;66.79;102298.47;5014761;28;45380;-79
2021/10/12 06:55:34;;;;;;;;;13.00;10.50;;;;;11.19;66.79;102289.53;5015510;28;45395;-79
2021/10/12 06:58:00;;;;;;;;;10.50;9.75;;;;;11.29;66.47;102302.28;5016363;28;45530;-78
2021/10/12 07:00:26;;;;;;;;;15.25;14.75;;;;;11.23;66.71;102281.13;5016487;28;45540;-86
2021/10/12 07:02:51;;;;;;;;;17.00;12.50;;;;;11.35;66.44;102300.88;5020939;28;45325;-82
2021/10/12 07:05:18;;;;;;;;;13.00;12.00;;;;;11.37;66.31;102289.84;5023297;28;45425;-79
2021/10/12 07:07:44;;;;;;;;;11.50;11.50;;;;;11.37;66.31;102278.53;5022376;28;45589;-87
2021/10/12 07:10:11;;;;;;;;;15.50;15.50;;;;;11.41;66.31;102267.59;5025624;28;45310;-89
2021/10/12 07:12:37;;;;;;;;;13.00;12.25;;;;;11.41;66.05;102273.66;5027579;28;45278;-90
2021/10/12 07:15:05;;;;;;;;;15.75;10.75;;;;;11.48;66.22;102268.88;5027206;28;45902;-83
2021/10/12 07:17:30;;;;;;;;;17.00;13.75;;;;;11.50;65.99;102275.97;5030623;28;45443;-82
2021/10/12 07:19:56;;;;;;;;;17.00;14.25;;;;;11.51;66.20;102274.25;5032594;28;45392;-78
2021/10/12 07:22:24;;;;;;;;;15.00;13.25;;;;;11.50;66.28;102273.38;5031999;28;45359;-79
2021/10/12 07:24:51;;;;;;;;;15.00;12.25;;;;;11.50;66.11;102264.69;5033017;28;45454;-87
2021/10/12 07:27:17;;;;;;;;;13.75;12.00;;;;;11.48;66.23;102267.19;5027587;28;45358;-87
2021/10/12 07:29:49;;;;;;;;;13.00;12.25;;;;;11.46;66.07;102256.72;5027066;28;45330;-79
2021/10/12 07:32:15;;;;;;;;;13.75;11.25;;;;;11.58;65.98;102274.75;5027768;28;45208;-90
2021/10/12 07:34:41;;;;;;;;;16.00;13.25;;;;;11.58;66.02;102271.28;5025227;28;45353;-89
2021/10/12 07:37:06;;;;;;;;;17.25;11.25;;;;;11.60;65.93;102274.88;5022980;28;45274;-91
2021/10/12 07:39:32;;;;;;;;;13.25;12.00;;;;;11.58;66.03;102266.09;5022185;28;45322;-84
2021/10/12 07:41:58;;;;;;;;;14.00;12.00;;;;;11.60;65.67;102264.50;5019718;28;45311;-78
2021/10/12 07:44:23;;;;;;;;;16.00;13.50;;;;;11.61;65.84;102263.66;5021055;28;45533;-81
2021/10/12 07:46:49;;;;;;;;;13.25;10.25;;;;;11.55;65.97;102250.31;5017947;28;45491;-78
2021/10/12 07:49:14;;;;;;;;;16.50;12.25;;;;;11.64;65.69;102273.38;5018256;28;46184;-78
2021/10/12 07:51:41;;;;;;;;;14.00;13.25;;;;;11.61;65.59;102264.56;5017154;28;45450;-78
2021/10/12 07:54:12;;;;;;;;;13.50;13.00;;;;;11.65;65.69;102268.25;5017495;28;45327;-78
2021/10/12 07:56:38;;;;;;;;;18.00;17.25;;;;;11.67;65.68;102264.06;5017531;28;45440;-83
2021/10/12 07:59:06;;;;;;;;;16.75;14.00;;;;;11.67;65.49;102260.56;5017672;28;45450;-81
2021/10/12 08:01:33;;;;;;;;;17.25;15.50;;;;;11.71;65.52;102255.69;5018416;28;45429;-83
2021/10/12 08:03:59;;;;;;;;;18.75;16.00;;;;;11.69;65.73;102249.50;5018949;28;45453;-78
2021/10/12 08:06:25;;;;;;;;;16.00;15.75;;;;;11.72;65.38;102241.91;5019139;28;45486;-82
2021/10/12 08:08:51;;;;;;;;;18.25;16.25;;;;;11.71;65.47;102241.81;5018648;28;46255;-79
2021/10/12 08:11:17;;;;;;;;;19.50;15.75;;;;;11.89;65.54;102265.44;5001796;28;45304;-78
2021/10/12 08:13:44;;;;;;;;;15.50;14.75;;;;;11.99;65.50;102256.53;5020303;28;45961;-82
2021/10/12 08:16:10;;;;;;;;;16.00;13.75;;;;;12.04;65.05;102248.22;5019225;28;45343;-79
2021/10/12 08:18:37;;;;;;;;;19.25;16.75;;;;;12.16;64.95;102257.59;5017350;28;45374;-78
2021/10/12 08:21:03;;;;;;;;;18.50;16.50;;;;;12.14;64.82;102246.22;5018052;28;45347;-85
2021/10/12 08:23:28;;;;;;;;;13.50;11.75;;;;;12.19;64.78;102256.09;5021910;28;46533;-82
2021/10/12 08:25:54;;;;;;;;;14.75;14.75;;;;;12.19;64.58;102257.78;5018547;28;45538;-87
2021/10/12 08:28:20;;;;;;;;;21.25;15.00;;;;;12.23;64.97;102252.88;5018013;28;46314;-76
2021/10/12 08:30:46;;;;;;;;;18.00;16.00;;;;;12.29;64.94;102254.94;5018545;28;45516;-83
2021/10/12 08:33:11;;;;;;;;;13.25;11.25;;;;;12.37;64.59;102245.91;5020152;28;45484;-85
2021/10/12 08:35:37;;;;;;;;;20.25;14.25;;;;;12.36;64.79;102238.91;5017713;28;45359;-78
2021/10/12 08:38:02;;;;;;;;;15.50;15.00;;;;;12.35;64.75;102234.56;5018304;28;46176;-84
2021/10/12 08:40:31;;;;;;;;;21.50;17.00;;;;;12.33;64.85;102233.56;5020605;28;45471;-80
2021/10/12 08:42:58;;;;;;;;;19.00;15.50;;;;;12.35;64.83;102233.66;5020018;28;45324;-80
2021/10/12 08:45:24;;;;;;;;;17.25;15.50;;;;;12.36;64.84;102235.44;5019959;28;45394;-82
2021/10/12 08:47:51;;;;;;;;;10.25;10.25;;;;;12.34;64.71;102232.75;5018821;28;46121;-78
2021/10/12 08:50:20;;;;;;;;;11.75;11.00;;;;;12.34;64.99;102237.03;5020480;28;45667;-83
2021/10/12 08:52:47;;;;;;;;;21.25;18.75;;;;;12.34;64.98;102226.66;5017805;28;45433;-77
2021/10/12 08:55:14;;;;;;;;;19.00;15.50;;;;;12.37;65.05;102219.06;5016841;28;45423;-77
2021/10/12 08:57:43;;;;;;;;;14.25;13.75;;;;;12.42;64.93;102229.72;5014300;28;46621;-81
2021/10/12 09:00:11;;;;;;;;;18.00;14.50;;;;;12.46;65.14;102226.50;5018243;28;46005;-78
2021/10/12 09:02:57;;;;;;;;;20.75;17.25;;;;;12.49;65.16;102231.88;5016841;28;45396;-78
2021/10/12 09:05:26;;;;;;;;;17.25;16.75;;;;;12.50;65.09;102228.47;5016884;28;45649;-82
2021/10/12 09:07:57;;;;;;;;;16.75;15.50;;;;;12.51;65.21;102215.59;5015786;28;45341;-80
2021/10/12 09:10:23;;;;;;;;;19.00;15.75;;;;;12.57;65.36;102217.66;5016169;28;45435;-82
2021/10/12 09:12:49;;;;;;;;;20.00;17.00;;;;;12.62;65.36;102216.22;5016068;28;45251;-79
2021/10/12 09:15:17;;;;;;;;;20.25;18.00;;;;;12.67;65.33;102208.69;5016916;28;45224;-78
2021/10/12 09:17:49;;;;;;;;;17.00;15.25;;;;;12.72;65.07;102212.47;5031151;28;46534;-78
2021/10/12 09:20:15;;;;;;;;;20.00;18.75;;;;;12.77;65.14;102199.75;5016075;28;45916;-79
2021/10/12 09:23:05;;;;;;;;;20.25;17.25;;;;;12.82;64.83;102195.69;5015265;28;45464;-80
2021/10/12 09:25:39;;;;;;;;;21.25;18.75;;;;;12.88;64.92;102200.34;5015829;28;45457;-81
2021/10/12 09:28:05;;;;;;;;;23.00;21.00;;;;;12.88;64.84;102197.75;5013870;28;45937;-79
2021/10/12 09:30:34;;;;;;;;;17.25;16.00;;;;;12.92;65.06;102191.94;5030287;28;45276;-78
2021/10/12 09:33:04;;;;;;;;;21.00;19.50;;;;;12.97;64.86;102195.66;5015381;28;45415;-80
2021/10/12 09:35:31;;;;;;;;;19.25;18.00;;;;;13.03;64.91;102189.94;5013788;28;45271;-80
2021/10/12 09:38:14;;;;;;;;;20.25;19.75;;;;;13.06;64.72;102183.22;5016140;28;45439;-79
2021/10/12 09:40:42;;;;;;;;;19.00;18.00;;;;;13.13;64.65;102187.03;5031334;28;45372;-79
2021/10/12 09:43:09;;;;;;;;;19.25;16.00;;;;;13.19;64.77;102189.09;5015728;28;45220;-78
2021/10/12 09:45:43;;;;;;;;;23.75;21.25;;;;;13.22;64.63;102186.66;5017939;28;45499;-78
2021/10/12 09:48:34;;;;;;;;;19.75;18.00;;;;;13.28;64.76;102185.31;5016522;28;46231;-78
2021/10/12 09:51:07;;;;;;;;;20.75;19.25;;;;;13.28;64.46;102180.13;5016853;28;45287;-79
2021/10/12 09:53:32;;;;;;;;;21.00;19.50;;;;;13.34;64.57;102178.66;5014728;28;45396;-79
2021/10/12 09:55:59;;;;;;;;;24.50;21.25;;;;;13.42;64.84;102185.22;5016906;28;45478;-78
2021/10/12 09:58:29;;;;;;;;;21.25;20.75;;;;;13.49;64.37;102183.84;5016982;28;45477;-79
2021/10/12 10:00:56;;;;;;;;;21.50;20.00;;;;;13.58;64.48;102185.25;5017766;28;46061;-78
2021/10/12 10:03:22;;;;;;;;;24.25;18.25;;;;;13.65;64.32;102183.88;5019065;28;45307;-78
2021/10/12 10:05:48;;;;;;;;;21.00;18.00;;;;;13.70;64.07;102173.72;5018237;28;46100;-78
2021/10/12 10:08:14;;;;;;;;;18.75;17.00;;;;;13.84;64.17;102187.47;5016740;28;47696;-78
2021/10/12 10:10:41;;;;;;;;;20.00;19.50;;;;;13.89;64.15;102165.19;5017600;28;45473;-78
2021/10/12 10:13:07;;;;;;;;;19.50;15.50;;;;;14.01;64.32;102176.25;5023771;28;45418;-79
2021/10/12 10:15:35;;;;;;;;;21.75;18.25;;;;;14.05;64.10;102162.56;5023864;28;45556;-79
2021/10/12 10:18:00;;;;;;;;;22.00;19.50;;;;;14.16;64.21;102165.72;5021647;28;45259;-83
2021/10/12 10:20:27;;;;;;;;;22.00;20.75;;;;;14.26;63.79;102169.69;5022642;28;45361;-84
2021/10/12 10:22:56;;;;;;;;;23.25;22.50;;;;;14.28;63.70;102157.66;5018251;28;45256;-78
2021/10/12 10:25:34;;;;;;;;;29.00;23.75;;;;;14.37;63.48;102150.28;5020145;28;45299;-79
2021/10/12 10:28:18;;;;;;;;;22.00;20.75;;;;;14.41;63.60;102151.38;5019282;28;45460;-78
2021/10/12 10:30:49;;;;;;;;;27.75;24.75;;;;;14.41;63.38;102153.97;5021629;28;45275;-77
2021/10/12 10:33:35;;;;;;;;;23.50;21.25;;;;;14.46;63.74;102152.47;5020275;28;45428;-82
2021/10/12 10:36:04;;;;;;;;;25.25;21.25;;;;;14.47;64.02;102141.25;5024558;28;45354;-82
2021/10/12 10:38:48;;;;;;;;;25.75;21.75;;;;;14.49;63.92;102131.78;5019805;28;46146;-83
2021/10/12 10:41:14;;;;;;;;;20.75;16.75;;;;;14.53;63.40;102140.66;5022152;28;45731;-79
2021/10/12 10:43:52;;;;;;;;;22.75;18.00;;;;;14.57;63.38;102132.19;5022722;28;45322;-77
2021/10/12 10:46:34;;;;;;;;;18.25;17.25;;;;;14.60;63.22;102132.31;5020852;28;45465;-77
2021/10/12 10:49:06;;;;;;;;;17.25;15.50;;;;;14.62;62.97;102133.28;5018763;28;45818;-78
2021/10/12 10:52:07;;;;;;;;;16.00;10.75;;;;;14.65;63.07;102127.31;5016920;28;45446;-79
2021/10/12 10:54:36;;;;;;;;;15.25;14.50;;;;;14.70;63.21;102129.38;5021535;28;45430;-81
2021/10/12 10:57:20;;;;;;;;;15.00;12.75;;;;;14.80;62.65;102122.91;5030752;28;45441;-86
2021/10/12 11:00:11;;;;;;;;;15.50;14.00;;;;;14.81;62.50;102113.34;5025580;28;47108;-78
2021/10/12 11:02:47;;;;;;;;;18.25;14.00;;;;;14.80;62.88;102109.88;5018867;28;45338;-80
2021/10/12 11:05:43;;;;;;;;;15.00;11.25;;;;;15.05;62.63;102113.66;5018891;28;45989;-81
2021/10/12 11:08:10;;;;;;;;;16.00;13.00;;;;;15.22;61.62;102118.75;5017911;28;45410;-81
2021/10/12 11:10:36;;;;;;;;;10.50;10.50;;;;;15.33;60.74;102114.94;5018204;28;45607;-85
2021/10/12 11:13:02;;;;;;;;;10.75;9.00;;;;;15.37;60.16;102100.31;5018160;28;45789;-83
2021/10/12 11:15:28;;;;;;;;;11.75;8.00;;;;;15.51;59.12;102098.31;5019597;28;45311;-80